Time;durP1;ratioP1;P1;durP2;ratioP2;P2;SDS_P1;SDS_P2;PMS_P1;PMS_P2;Temp;Humidity;BMP_temperature;BMP_pressure;BME280_temperature;BME280_humidity;BME280_pressure;Samples;Min_cycle;Max_cycle;Signal;HPM_P1;HPM_P2
2022/12/15 00:38:44;;;;;;;22.13;14.77;;;2.60;86.30;;;;;;4975327;28;20478;-66
2022/12/15 00:41:15;;;;;;;22.02;14.63;;;2.50;86.10;;;;;;4979197;28;20180;-66
2022/12/15 00:43:40;;;;;;;24.10;15.95;;;2.50;86.10;;;;;;4975033;28;20030;-66
2022/12/15 00:48:50;;;;;;;24.77;15.82;;;2.40;86.10;;;;;;4974728;28;20521;-66
2022/12/15 00:51:17;;;;;;;24.20;15.77;;;2.50;86.30;;;;;;4975839;28;20125;-66
2022/12/15 01:21:08;;;;;;;;;;;2.40;85.90;;;;;;4974543;28;20045;-65
2022/12/15 01:23:35;;;;;;;24.17;15.13;;;2.40;86.00;;;;;;4977458;28;19922;-66
2022/12/15 01:26:01;;;;;;;23.75;14.57;;;2.40;85.60;;;;;;4974930;28;20033;-66
2022/12/15 01:28:27;;;;;;;22.83;14.68;;;2.40;85.60;;;;;;4978627;28;20034;-66
2022/12/15 01:30:53;;;;;;;21.42;13.82;;;2.40;85.70;;;;;;4973819;28;20057;-65
2022/12/15 01:33:19;;;;;;;20.42;13.20;;;2.40;85.80;;;;;;4976814;28;20121;-65
2022/12/15 01:35:53;;;;;;;20.00;13.15;;;2.30;85.80;;;;;;4974567;28;20513;-66
2022/12/15 01:38:19;;;;;;;23.35;14.65;;;2.30;85.90;;;;;;4975846;28;20062;-66
2022/12/15 01:40:51;;;;;;;21.27;14.23;;;2.30;85.90;;;;;;4975127;28;20031;-66
2022/12/15 01:43:23;;;;;;;20.83;13.35;;;2.40;85.90;;;;;;4978647;28;20041;-65
2022/12/15 01:45:53;;;;;;;19.70;13.15;;;2.40;85.90;;;;;;4975242;28;20041;-66
2022/12/15 01:48:46;;;;;;;20.50;14.10;;;2.30;85.80;;;;;;4979752;28;20146;-65
2022/12/15 01:51:23;;;;;;;22.13;13.45;;;2.40;85.80;;;;;;4977309;28;20041;-66
2022/12/15 01:53:53;;;;;;;21.05;13.38;;;2.40;85.80;;;;;;4976590;28;20129;-66
2022/12/15 01:56:20;;;;;;;19.13;13.20;;;2.40;85.70;;;;;;4990938;28;20094;-66
2022/12/15 01:58:49;;;;;;;19.02;12.80;;;2.40;85.80;;;;;;4974783;28;20458;-66
2022/12/15 02:01:15;;;;;;;22.00;12.95;;;2.40;85.80;;;;;;4973600;28;20037;-65
2022/12/15 02:03:42;;;;;;;20.02;13.48;;;2.40;85.80;;;;;;4972548;28;20026;-65
2022/12/15 02:06:10;;;;;;;18.58;12.82;;;2.40;85.80;;;;;;4974995;28;20137;-65
2022/12/15 02:08:36;;;;;;;19.20;12.77;;;2.40;85.70;;;;;;4977057;28;20027;-65
2022/12/15 02:11:24;;;;;;;20.05;13.52;;;2.40;85.60;;;;;;4978263;28;20489;-65
2022/12/15 02:14:24;;;;;;;20.88;12.82;;;2.40;85.50;;;;;;4973064;28;20034;-65
2022/12/15 02:17:06;;;;;;;19.42;12.55;;;2.50;85.40;;;;;;4975351;28;20054;-66
2022/12/15 02:19:47;;;;;;;20.42;12.73;;;2.50;85.40;;;;;;4983390;28;20423;-65
2022/12/15 02:22:48;;;;;;;18.15;11.90;;;2.50;85.30;;;;;;4977349;28;20037;-65
2022/12/15 02:25:57;;;;;;;17.88;11.77;;;2.40;85.20;;;;;;4977922;28;20686;-65
2022/12/15 02:28:34;;;;;;;19.27;11.52;;;2.40;85.20;;;;;;4941437;28;20051;-65
2022/12/15 02:34:02;;;;;;;17.58;11.60;;;2.40;85.10;;;;;;4979241;28;20185;-65
2022/12/15 02:36:48;;;;;;;18.13;12.02;;;2.40;85.20;;;;;;4982062;28;20398;-65
2022/12/15 02:39:17;;;;;;;19.15;12.05;;;2.40;85.20;;;;;;4982169;28;20089;-66
2022/12/15 02:41:45;;;;;;;19.67;11.95;;;2.40;85.10;;;;;;4980709;28;20042;-65
2022/12/15 02:44:12;;;;;;;17.35;11.45;;;2.40;85.30;;;;;;4979197;28;20045;-65
2022/12/15 02:47:08;;;;;;;18.67;11.93;;;2.40;85.40;;;;;;4975273;28;20081;-66
2022/12/15 02:49:48;;;;;;;17.83;12.15;;;2.40;85.40;;;;;;4978694;28;20100;-66
2022/12/15 02:52:50;;;;;;;17.67;11.65;;;2.40;85.40;;;;;;4971693;28;20034;-65
2022/12/15 02:55:26;;;;;;;17.70;11.90;;;2.40;86.30;;;;;;4973810;28;20034;-65
2022/12/15 02:58:06;;;;;;;18.58;11.93;;;2.40;85.40;;;;;;4981102;28;20498;-66
2022/12/15 03:00:38;;;;;;;16.00;11.23;;;2.40;85.40;;;;;;4977264;28;20439;-65
2022/12/15 03:03:04;;;;;;;17.75;11.38;;;2.40;85.40;;;;;;4981348;28;20038;-66
2022/12/15 03:05:30;;;;;;;18.58;11.85;;;2.40;85.40;;;;;;4974757;28;20120;-65
2022/12/15 03:07:56;;;;;;;20.15;12.43;;;2.40;85.40;;;;;;4976630;28;20045;-65
2022/12/15 03:10:24;;;;;;;18.75;11.90;;;2.40;85.40;;;;;;4979887;28;20031;-65
2022/12/15 03:12:50;;;;;;;19.27;12.23;;;2.50;85.40;;;;;;4976518;28;20793;-65
2022/12/15 03:15:17;;;;;;;20.73;12.60;;;2.50;85.30;;;;;;4978015;28;20026;-66
2022/12/15 03:17:42;;;;;;;17.55;11.75;;;2.50;85.30;;;;;;4980374;28;20396;-65
2022/12/15 03:20:09;;;;;;;20.90;12.30;;;2.50;85.30;;;;;;4976037;28;20661;-66
2022/12/15 03:22:35;;;;;;;19.30;11.90;;;2.50;85.30;;;;;;4977243;28;20054;-65
2022/12/15 03:25:01;;;;;;;18.67;11.70;;;2.50;85.10;;;;;;4978225;28;20123;-66
2022/12/15 03:27:26;;;;;;;20.02;12.15;;;2.40;85.10;;;;;;4980821;28;20123;-66
2022/12/15 03:29:55;;;;;;;20.50;12.40;;;2.40;85.10;;;;;;4977133;28;20038;-65
2022/12/15 03:32:20;;;;;;;20.40;12.68;;;2.40;85.30;;;;;;4981353;28;20115;-65
2022/12/15 03:34:46;;;;;;;19.27;12.23;;;2.40;85.30;;;;;;4977966;28;20403;-66
2022/12/15 03:37:12;;;;;;;17.48;12.23;;;2.40;85.30;;;;;;4979633;28;20034;-65
2022/12/15 03:39:37;;;;;;;19.98;12.43;;;2.40;85.30;;;;;;4979207;28;20056;-66
2022/12/15 03:42:03;;;;;;;19.25;12.57;;;2.40;85.30;;;;;;4978012;28;20413;-65
2022/12/15 03:44:29;;;;;;;20.42;12.60;;;2.40;85.30;;;;;;4975143;28;20042;-66
2022/12/15 03:46:54;;;;;;;18.77;12.35;;;2.40;85.10;;;;;;4979794;28;20557;-65
2022/12/15 03:49:20;;;;;;;18.08;12.02;;;2.30;85.00;;;;;;4981897;28;20445;-65
2022/12/15 03:51:46;;;;;;;19.98;12.75;;;2.30;85.00;;;;;;4976205;28;20865;-65
2022/12/15 03:54:12;;;;;;;19.65;12.25;;;2.30;85.10;;;;;;4976721;28;20369;-65
2022/12/15 03:56:38;;;;;;;20.58;12.05;;;2.30;85.00;;;;;;4973370;28;20338;-65
2022/12/15 03:59:04;;;;;;;21.55;13.32;;;2.30;85.10;;;;;;5013785;28;20114;-65
2022/12/15 04:01:34;;;;;;;18.95;12.35;;;2.40;85.10;;;;;;4975688;28;20050;-65
2022/12/15 04:04:01;;;;;;;19.45;12.45;;;2.20;84.90;;;;;;4973398;28;20030;-65
2022/12/15 04:06:29;;;;;;;20.48;13.10;;;2.20;85.10;;;;;;4977250;28;20668;-66
2022/12/15 04:08:54;;;;;;;20.42;12.90;;;2.20;85.10;;;;;;4981009;28;20115;-65
2022/12/15 04:11:20;;;;;;;21.10;14.05;;;2.20;85.20;;;;;;4973892;28;20039;-65
2022/12/15 04:13:46;;;;;;;22.15;13.50;;;2.20;85.30;;;;;;4980184;28;20041;-65
2022/12/15 04:16:11;;;;;;;21.67;13.70;;;2.20;85.10;;;;;;4975693;28;20041;-64
2022/12/15 04:18:37;;;;;;;21.38;13.43;;;2.20;85.90;;;;;;4977857;28;20039;-65
2022/12/15 04:21:03;;;;;;;24.73;14.68;;;2.20;84.90;;;;;;4973464;28;20026;-64
2022/12/15 04:23:28;;;;;;;23.35;13.95;;;2.10;84.90;;;;;;4974331;28;20036;-65
2022/12/15 05:32:04;;;;;;;;;;;1.80;86.10;;;;;;4973788;28;20096;-64
2022/12/15 05:34:32;;;;;;;30.55;17.80;;;1.90;86.50;;;;;;4979133;28;19932;-65
2022/12/15 05:36:59;;;;;;;29.75;18.33;;;1.80;86.00;;;;;;4975940;28;20509;-64
2022/12/15 05:39:25;;;;;;;28.60;18.30;;;1.80;86.10;;;;;;4977251;28;20383;-65
2022/12/15 05:41:52;;;;;;;32.75;20.02;;;1.80;86.20;;;;;;4976236;28;20112;-64
2022/12/15 05:44:18;;;;;;;27.17;17.10;;;1.80;86.10;;;;;;4980078;28;20072;-65
2022/12/15 05:46:44;;;;;;;30.88;18.77;;;1.80;86.20;;;;;;4973893;28;20465;-64
2022/12/15 05:49:13;;;;;;;29.67;17.73;;;1.80;86.30;;;;;;4980766;28;20031;-65
2022/12/15 05:51:40;;;;;;;30.30;18.08;;;1.80;86.40;;;;;;4981242;28;20462;-64
2022/12/15 05:54:07;;;;;;;28.08;17.33;;;1.80;86.50;;;;;;4981660;28;20031;-64
2022/12/15 05:56:34;;;;;;;30.85;18.38;;;1.90;86.40;;;;;;4977293;28;20177;-65
2022/12/15 05:59:00;;;;;;;28.48;17.38;;;1.80;86.20;;;;;;4982949;28;20038;-64
2022/12/15 06:01:27;;;;;;;28.35;17.50;;;1.90;86.10;;;;;;4979121;28;20050;-64
2022/12/15 06:03:52;;;;;;;29.38;18.13;;;1.80;86.10;;;;;;4978839;28;20038;-64
2022/12/15 06:06:18;;;;;;;27.67;17.55;;;1.90;86.10;;;;;;4988020;28;20704;-64
2022/12/15 06:08:44;;;;;;;27.92;17.92;;;1.80;86.80;;;;;;4987484;28;20283;-65
2022/12/15 06:11:14;;;;;;;31.60;18.08;;;1.80;86.00;;;;;;4982506;28;20038;-64
2022/12/15 06:13:41;;;;;;;27.63;17.75;;;1.80;86.00;;;;;;4985383;28;20034;-64
2022/12/15 06:16:10;;;;;;;30.50;18.30;;;1.80;85.80;;;;;;4983606;28;20061;-64
2022/12/15 06:18:39;;;;;;;30.85;18.50;;;1.80;85.80;;;;;;4989029;28;20038;-64
2022/12/15 06:21:25;;;;;;;28.83;18.45;;;1.80;85.80;;;;;;4978688;28;20517;-64
2022/12/15 06:23:52;;;;;;;28.77;17.80;;;1.80;85.70;;;;;;4971045;28;20450;-64
2022/12/15 06:26:39;;;;;;;31.92;18.52;;;1.80;85.70;;;;;;4975910;28;20410;-64
2022/12/15 06:29:08;;;;;;;30.40;17.90;;;1.80;86.60;;;;;;4976027;28;20038;-64
2022/12/15 06:31:34;;;;;;;30.45;18.65;;;1.80;85.80;;;;;;4974896;28;20042;-64
2022/12/15 06:34:02;;;;;;;32.75;20.13;;;1.80;85.90;;;;;;4980085;28;20145;-64
2022/12/15 06:36:29;;;;;;;32.78;19.08;;;1.80;86.00;;;;;;4976712;28;20038;-65
2022/12/15 06:38:57;;;;;;;31.63;18.50;;;1.80;85.80;;;;;;4977958;28;20050;-64
2022/12/15 06:41:23;;;;;;;32.30;18.77;;;1.80;85.90;;;;;;4982453;28;20030;-64
2022/12/15 06:43:51;;;;;;;31.75;19.20;;;1.80;85.90;;;;;;4987380;28;20049;-64
2022/12/15 06:46:17;;;;;;;33.80;19.40;;;1.80;86.00;;;;;;5003889;28;20065;-63
2022/12/15 06:48:45;;;;;;;32.03;19.25;;;1.80;85.90;;;;;;4986498;28;20033;-64
2022/12/15 06:51:12;;;;;;;30.92;18.55;;;1.80;85.80;;;;;;4987774;28;20038;-64
2022/12/15 06:53:47;;;;;;;35.00;19.98;;;1.80;85.80;;;;;;4982344;28;20049;-64
2022/12/15 06:56:20;;;;;;;33.95;19.58;;;1.80;85.80;;;;;;4983945;28;20507;-64
2022/12/15 06:58:47;;;;;;;32.33;19.35;;;1.80;85.70;;;;;;4984382;28;20169;-64
2022/12/15 07:01:14;;;;;;;32.72;19.75;;;1.70;85.60;;;;;;4984913;28;20536;-64
2022/12/15 07:03:43;;;;;;;35.05;20.67;;;1.70;85.80;;;;;;4984691;28;20030;-64
2022/12/15 07:06:10;;;;;;;34.33;20.15;;;1.70;85.80;;;;;;4984965;28;20125;-65
2022/12/15 07:08:36;;;;;;;33.28;19.95;;;1.70;85.80;;;;;;4986163;28;21115;-63
2022/12/15 07:11:04;;;;;;;33.60;20.50;;;1.70;85.80;;;;;;4981489;28;20401;-64
2022/12/15 07:13:30;;;;;;;36.53;21.45;;;1.70;85.80;;;;;;4983903;28;22605;-64
2022/12/15 07:16:04;;;;;;;36.35;21.02;;;1.70;85.80;;;;;;4981623;28;20392;-64
2022/12/15 07:18:29;;;;;;;25.90;15.23;;;1.60;85.70;;;;;;4985073;28;20402;-64
2022/12/15 07:21:07;;;;;;;34.60;20.55;;;1.60;85.70;;;;;;4985790;28;20030;-64
2022/12/15 07:23:33;;;;;;;39.83;21.30;;;1.60;85.70;;;;;;4982049;28;20887;-64
2022/12/15 07:26:03;;;;;;;37.47;21.48;;;1.60;85.80;;;;;;4982013;28;20045;-64
2022/12/15 07:28:29;;;;;;;37.33;21.75;;;1.60;85.80;;;;;;4994497;28;20031;-63
2022/12/15 07:30:54;;;;;;;41.78;22.48;;;1.60;85.90;;;;;;4975857;28;20042;-64
2022/12/15 07:33:20;;;;;;;40.13;22.13;;;1.60;85.80;;;;;;4979836;28;20528;-64
2022/12/15 07:35:55;;;;;;;39.33;22.00;;;1.60;85.70;;;;;;4980626;28;20418;-64
2022/12/15 07:38:20;;;;;;;;;;;1.60;85.60;;;;;;4984525;28;20037;-63
2022/12/15 07:40:46;;;;;;;43.17;21.88;;;1.60;85.80;;;;;;4979129;28;19926;-64
2022/12/15 07:43:11;;;;;;;41.53;22.35;;;1.60;85.40;;;;;;4978908;28;20565;-64
2022/12/15 07:45:37;;;;;;;41.60;22.58;;;1.50;85.40;;;;;;4974014;28;20034;-64
2022/12/15 07:48:03;;;;;;;40.28;21.88;;;1.50;85.60;;;;;;4976793;28;20030;-64
2022/12/15 07:50:28;;;;;;;41.80;23.42;;;1.50;85.60;;;;;;4977711;28;20042;-63
2022/12/15 07:52:54;;;;;;;44.20;23.25;;;1.50;85.60;;;;;;4975794;28;20054;-64
2022/12/15 07:55:20;;;;;;;39.47;22.10;;;1.50;85.70;;;;;;4975140;28;20046;-64
2022/12/15 07:57:48;;;;;;;41.92;23.90;;;1.50;85.60;;;;;;4978171;28;20031;-63
2022/12/15 08:00:14;;;;;;;41.25;22.50;;;1.50;85.60;;;;;;4975452;28;20105;-64
2022/12/15 08:02:41;;;;;;;44.38;22.30;;;1.40;85.60;;;;;;4976503;28;20401;-64
2022/12/15 08:05:08;;;;;;;42.85;22.65;;;1.40;85.80;;;;;;4979268;28;20648;-63
2022/12/15 08:07:33;;;;;;;44.35;24.25;;;1.50;85.90;;;;;;4976579;28;20204;-64
2022/12/15 08:09:59;;;;;;;42.03;22.85;;;1.50;86.00;;;;;;4979816;28;20112;-64
2022/12/15 08:12:30;;;;;;;39.88;23.20;;;1.50;86.00;;;;;;4974358;28;20173;-64
2022/12/15 08:14:55;;;;;;;40.38;22.80;;;1.50;86.00;;;;;;4977153;28;20038;-64
2022/12/15 08:17:21;;;;;;;38.97;22.48;;;1.50;86.00;;;;;;4978713;28;20046;-64
2022/12/15 08:19:47;;;;;;;41.65;22.05;;;1.60;86.90;;;;;;4977469;28;20042;-64
2022/12/15 08:22:14;;;;;;;41.80;23.08;;;1.60;86.00;;;;;;4971842;28;20049;-63
2022/12/15 08:24:40;;;;;;;41.95;22.73;;;1.60;85.80;;;;;;4957347;28;20041;-63
2022/12/15 08:27:05;;;;;;;39.17;21.23;;;1.60;85.80;;;;;;4968863;28;20042;-63
2022/12/15 08:29:31;;;;;;;42.78;22.98;;;1.60;85.80;;;;;;4970064;28;20046;-64
2022/12/15 08:31:57;;;;;;;42.03;22.83;;;1.60;85.80;;;;;;4973735;28;20038;-64
2022/12/15 08:34:22;;;;;;;40.75;22.85;;;1.60;85.90;;;;;;4976122;28;20041;-64
2022/12/15 08:36:48;;;;;;;42.72;23.67;;;1.70;85.80;;;;;;4978971;28;20672;-64
2022/12/15 08:39:14;;;;;;;45.20;23.25;;;1.70;86.60;;;;;;4979618;28;20037;-64
2022/12/15 08:41:40;;;;;;;42.72;23.58;;;1.70;85.80;;;;;;4980320;28;20030;-63
2022/12/15 08:44:05;;;;;;;40.47;22.90;;;1.70;85.70;;;;;;4980691;28;20077;-64
2022/12/15 08:46:33;;;;;;;41.58;23.13;;;1.70;85.80;;;;;;4983373;28;20258;-64
2022/12/15 08:48:59;;;;;;;44.08;23.58;;;1.70;85.60;;;;;;4980685;28;20034;-63
2022/12/15 08:51:27;;;;;;;38.80;22.00;;;1.80;85.80;;;;;;4981385;28;20507;-63
2022/12/15 08:53:54;;;;;;;42.50;23.52;;;1.80;85.60;;;;;;4981814;28;20034;-64
2022/12/15 08:56:21;;;;;;;42.17;22.75;;;1.80;85.50;;;;;;4983928;28;20478;-64
2022/12/15 08:58:48;;;;;;;45.35;24.20;;;1.80;85.50;;;;;;4983581;28;20082;-64
2022/12/15 09:01:17;;;;;;;40.05;21.90;;;1.80;85.50;;;;;;4980497;28;20122;-64
2022/12/15 09:03:43;;;;;;;44.75;23.73;;;1.80;85.50;;;;;;4978398;28;20093;-64
2022/12/15 09:06:35;;;;;;;43.20;23.92;;;1.80;85.50;;;;;;4979872;28;20045;-64
2022/12/15 09:09:06;;;;;;;42.88;22.42;;;1.80;85.40;;;;;;4982244;28;20105;-64
2022/12/15 09:11:31;;;;;;;42.40;22.58;;;1.80;85.30;;;;;;4979092;28;20395;-63
2022/12/15 09:13:57;;;;;;;41.15;22.50;;;1.80;85.40;;;;;;4980672;28;20075;-63
2022/12/15 09:16:24;;;;;;;41.92;22.67;;;1.80;85.40;;;;;;4980618;28;20030;-64
2022/12/15 09:18:52;;;;;;;38.92;22.10;;;1.80;85.40;;;;;;4981320;28;20125;-64
2022/12/15 09:21:21;;;;;;;39.10;22.35;;;1.80;85.30;;;;;;4983908;28;20023;-65
2022/12/15 09:23:50;;;;;;;40.42;22.65;;;1.80;85.30;;;;;;4981848;28;20032;-64
2022/12/15 09:26:16;;;;;;;43.38;23.48;;;1.90;85.30;;;;;;4980934;28;20045;-64
2022/12/15 09:28:42;;;;;;;44.42;23.30;;;1.90;85.20;;;;;;4980861;28;20066;-64
2022/12/15 09:31:10;;;;;;;42.78;23.95;;;1.90;85.20;;;;;;4981733;28;20030;-65
2022/12/15 09:33:38;;;;;;;44.20;24.15;;;1.90;84.90;;;;;;4980107;28;20034;-63
2022/12/15 09:36:04;;;;;;;45.97;24.52;;;1.90;84.70;;;;;;4981872;28;20035;-64
2022/12/15 09:38:32;;;;;;;46.90;26.60;;;1.80;84.70;;;;;;4983527;28;20034;-64
2022/12/15 09:41:05;;;;;;;46.28;25.08;;;1.80;84.60;;;;;;4978619;28;20030;-63
2022/12/15 09:43:30;;;;;;;48.22;25.95;;;1.80;84.40;;;;;;4995420;28;20274;-64
2022/12/15 09:46:05;;;;;;;47.55;25.88;;;1.70;84.60;;;;;;4980955;28;20041;-64
2022/12/15 09:48:39;;;;;;;46.70;24.90;;;1.60;84.70;;;;;;4979207;28;20038;-64
2022/12/15 09:51:11;;;;;;;42.92;23.73;;;1.60;84.90;;;;;;4980010;28;20026;-64
2022/12/15 09:53:36;;;;;;;45.85;25.58;;;1.60;85.30;;;;;;4983567;28;20062;-64
2022/12/15 09:56:07;;;;;;;45.50;25.27;;;1.60;85.30;;;;;;4975518;28;20034;-63
2022/12/15 09:58:32;;;;;;;46.10;24.00;;;1.50;85.10;;;;;;4977735;28;20061;-64
2022/12/15 10:01:12;;;;;;;44.03;23.92;;;1.50;85.30;;;;;;4978246;28;20149;-63
2022/12/15 10:04:11;;;;;;;44.28;24.80;;;1.50;85.50;;;;;;4981374;28;20030;-64
2022/12/15 10:06:42;;;;;;;44.97;23.30;;;1.60;85.60;;;;;;4979964;28;20046;-64
2022/12/15 10:09:28;;;;;;;46.35;24.65;;;1.60;85.40;;;;;;4981892;28;20046;-64
2022/12/15 10:12:11;;;;;;;45.35;24.92;;;1.60;85.40;;;;;;4977848;28;20124;-64
2022/12/15 10:14:36;;;;;;;45.63;24.65;;;1.60;85.40;;;;;;4981617;28;20065;-64
2022/12/15 10:17:25;;;;;;;47.42;25.27;;;1.60;85.30;;;;;;4983758;28;20125;-64
2022/12/15 10:19:54;;;;;;;47.97;25.02;;;1.60;85.60;;;;;;4976468;28;20062;-64
2022/12/15 10:22:29;;;;;;;57.97;32.22;;;1.60;85.80;;;;;;4980966;28;20425;-64
2022/12/15 10:24:55;;;;;;;56.78;30.45;;;1.60;86.00;;;;;;4980120;28;20039;-64
2022/12/15 10:27:42;;;;;;;48.00;26.83;;;1.60;85.90;;;;;;4979740;28;20126;-65
2022/12/15 10:30:12;;;;;;;44.40;24.75;;;1.70;86.00;;;;;;4975414;28;20042;-64
2022/12/15 10:33:23;;;;;;;44.22;24.83;;;1.70;85.80;;;;;;4982518;28;20730;-64
2022/12/15 10:35:52;;;;;;;45.13;24.30;;;1.80;85.80;;;;;;4978079;28;20046;-64
2022/12/15 10:38:24;;;;;;;45.00;24.40;;;1.80;85.50;;;;;;4979235;28;20161;-64
2022/12/15 10:40:57;;;;;;;44.40;24.75;;;1.80;85.50;;;;;;4983193;28;20038;-64
2022/12/15 10:43:25;;;;;;;44.80;24.40;;;1.80;85.60;;;;;;4981105;28;20036;-65
2022/12/15 10:46:17;;;;;;;44.42;23.90;;;1.80;85.60;;;;;;4985908;28;20053;-64
2022/12/15 10:48:58;;;;;;;46.95;25.55;;;1.90;85.40;;;;;;4977497;28;20041;-63
2022/12/15 10:51:35;;;;;;;47.60;24.88;;;1.90;85.10;;;;;;4980104;28;20035;-64
2022/12/15 10:54:08;;;;;;;42.50;24.05;;;1.80;84.70;;;;;;4987406;28;20038;-64
2022/12/15 10:56:44;;;;;;;52.10;26.95;;;1.80;84.80;;;;;;4982278;28;20093;-63
2022/12/15 10:59:22;;;;;;;49.42;25.33;;;1.80;85.10;;;;;;4987278;28;20027;-63
2022/12/15 11:01:48;;;;;;;53.22;26.80;;;1.80;85.10;;;;;;4984289;28;20043;-64
2022/12/15 11:04:33;;;;;;;49.92;25.98;;;1.80;85.30;;;;;;4983265;28;20402;-64
2022/12/15 11:07:01;;;;;;;54.80;28.17;;;1.80;85.40;;;;;;4979837;28;20041;-63
2022/12/15 11:09:35;;;;;;;50.47;25.75;;;1.80;85.30;;;;;;4989004;28;20037;-64
2022/12/15 11:14:48;;;;;;;54.50;27.67;;;1.80;85.30;;;;;;4987909;28;20097;-64
2022/12/15 11:17:17;;;;;;;55.17;28.70;;;1.70;85.20;;;;;;4990285;28;20037;-64
2022/12/15 11:20:09;;;;;;;54.65;28.48;;;1.70;85.10;;;;;;4989324;28;20410;-64
2022/12/15 11:22:57;;;;;;;56.80;29.52;;;1.70;85.00;;;;;;4987420;28;20513;-64
2022/12/15 11:25:44;;;;;;;52.55;26.55;;;1.70;84.80;;;;;;4987331;28;20109;-64
2022/12/15 11:28:15;;;;;;;56.42;28.67;;;1.70;85.00;;;;;;4987567;28;20034;-64
2022/12/15 11:30:46;;;;;;;56.67;29.48;;;1.60;85.10;;;;;;4988726;28;20058;-64
2022/12/15 11:33:12;;;;;;;53.88;28.80;;;1.60;85.00;;;;;;4988140;28;20042;-64
2022/12/15 11:35:53;;;;;;;56.58;29.95;;;1.60;85.00;;;;;;4988103;28;20080;-63
2022/12/15 11:38:31;;;;;;;57.65;28.98;;;1.60;85.20;;;;;;4989132;28;20093;-64
2022/12/15 11:41:06;;;;;;;62.50;31.08;;;1.50;85.40;;;;;;4988581;28;20027;-64
2022/12/15 11:43:57;;;;;;;59.70;29.48;;;1.50;85.40;;;;;;4988607;28;20041;-64
2022/12/15 11:46:26;;;;;;;65.72;30.30;;;1.50;85.40;;;;;;4989064;28;20505;-64
2022/12/15 11:49:19;;;;;;;59.42;30.10;;;1.50;85.30;;;;;;4984998;28;20049;-64
2022/12/15 11:52:11;;;;;;;62.13;30.50;;;1.50;85.40;;;;;;4987366;28;20026;-64
2022/12/15 11:55:13;;;;;;;66.15;31.35;;;1.40;85.30;;;;;;4979632;28;20034;-64
2022/12/15 11:58:00;;;;;;;66.65;31.77;;;1.40;85.30;;;;;;4980823;28;20038;-63
2022/12/15 12:00:28;;;;;;;65.25;31.20;;;1.40;85.40;;;;;;4984357;28;20034;-65
2022/12/15 12:03:34;;;;;;;67.65;31.23;;;1.30;85.40;;;;;;4984312;28;20046;-64
2022/12/15 12:06:11;;;;;;;69.47;32.53;;;1.30;85.50;;;;;;4979978;28;20026;-64
2022/12/15 12:08:48;;;;;;;65.47;30.98;;;1.30;85.30;;;;;;4983094;28;20034;-64
2022/12/15 12:11:19;;;;;;;66.25;31.42;;;1.30;86.10;;;;;;4985929;28;20038;-64
2022/12/15 12:14:11;;;;;;;70.88;33.72;;;1.30;85.40;;;;;;4987157;28;20031;-64
2022/12/15 12:16:49;;;;;;;64.43;30.88;;;1.30;85.50;;;;;;4983938;28;20754;-64
2022/12/15 12:19:32;;;;;;;60.80;29.05;;;1.30;85.40;;;;;;4982565;28;20026;-64
2022/12/15 12:22:22;;;;;;;67.72;31.75;;;1.30;85.60;;;;;;4984022;28;20060;-64
2022/12/15 12:24:55;;;;;;;64.55;29.38;;;1.30;85.80;;;;;;4980984;28;20030;-64
2022/12/15 12:27:27;;;;;;;67.00;30.38;;;1.30;85.80;;;;;;4982960;28;20033;-64
2022/12/15 12:30:01;;;;;;;63.72;30.05;;;1.20;85.70;;;;;;4976838;28;20050;-63
2022/12/15 12:32:39;;;;;;;65.90;30.15;;;1.30;85.80;;;;;;4982607;28;20506;-63
2022/12/15 12:35:32;;;;;;;63.38;29.45;;;1.30;85.80;;;;;;4969857;28;20073;-63
2022/12/15 12:38:08;;;;;;;56.22;27.88;;;1.30;85.80;;;;;;4979836;28;20042;-64
2022/12/15 12:40:39;;;;;;;64.22;31.00;;;1.30;85.80;;;;;;4977918;28;20168;-64
2022/12/15 12:43:11;;;;;;;63.92;30.92;;;1.30;85.80;;;;;;4974160;28;20050;-64
2022/12/15 12:45:58;;;;;;;61.25;29.30;;;1.30;85.80;;;;;;4976108;28;20157;-63
2022/12/15 12:48:32;;;;;;;61.15;29.85;;;1.40;86.00;;;;;;4976520;28;20117;-63
2022/12/15 12:51:32;;;;;;;58.58;28.50;;;1.40;85.80;;;;;;4979253;28;20259;-63
2022/12/15 12:53:58;;;;;;;62.08;29.98;;;1.40;85.90;;;;;;4976155;28;20458;-62
2022/12/15 12:56:34;;;;;;;61.95;30.42;;;1.40;85.80;;;;;;4975434;28;20054;-64
2022/12/15 12:59:06;;;;;;;62.30;29.40;;;1.40;85.80;;;;;;4975485;28;20513;-64
2022/12/15 13:01:34;;;;;;;63.15;29.90;;;1.40;86.00;;;;;;4979557;28;20406;-64
2022/12/15 13:04:12;;;;;;;64.05;30.63;;;1.40;86.00;;;;;;4974891;28;20041;-64
2022/12/15 13:06:37;;;;;;;61.08;29.92;;;1.50;86.20;;;;;;4979904;28;20030;-64
2022/12/15 13:09:18;;;;;;;62.97;30.10;;;1.50;86.00;;;;;;4980711;28;20050;-63
2022/12/15 13:11:55;;;;;;;64.07;28.75;;;1.50;86.10;;;;;;4972601;28;20043;-63
2022/12/15 13:14:30;;;;;;;62.03;29.58;;;1.50;86.10;;;;;;4978156;28;20026;-64
2022/12/15 13:17:24;;;;;;;59.90;28.88;;;1.60;86.10;;;;;;4979901;28;20043;-64
2022/12/15 13:19:55;;;;;;;63.17;30.40;;;1.70;86.20;;;;;;4981488;28;20506;-64
2022/12/15 13:22:27;;;;;;;60.03;29.80;;;1.70;86.00;;;;;;4976287;28;20057;-64
2022/12/15 13:24:55;;;;;;;66.85;29.90;;;1.70;86.00;;;;;;4977698;28;20070;-64
2022/12/15 13:27:21;;;;;;;63.63;29.48;;;1.80;85.90;;;;;;4975119;28;20755;-64
2022/12/15 13:30:14;;;;;;;100.55;43.30;;;1.80;85.80;;;;;;4976306;28;20042;-64
2022/12/15 13:32:50;;;;;;;73.63;35.22;;;1.80;85.90;;;;;;4976935;28;20434;-63
2022/12/15 13:35:30;;;;;;;72.13;35.50;;;1.80;85.80;;;;;;4982477;28;20066;-63
2022/12/15 13:38:03;;;;;;;65.15;31.10;;;1.90;85.80;;;;;;4980477;28;20074;-63
2022/12/15 13:40:34;;;;;;;62.13;31.45;;;1.90;85.70;;;;;;4974535;28;20022;-64
2022/12/15 13:43:02;;;;;;;62.03;31.33;;;1.90;85.70;;;;;;4977323;28;20124;-64
2022/12/15 13:45:40;;;;;;;65.70;30.25;;;1.90;85.70;;;;;;4979055;28;20044;-63
2022/12/15 13:48:37;;;;;;;65.82;32.00;;;1.90;85.60;;;;;;4982249;28;20185;-63
2022/12/15 13:51:33;;;;;;;65.47;31.40;;;1.90;85.80;;;;;;4981654;28;20030;-64
2022/12/15 13:54:21;;;;;;;65.22;31.40;;;2.10;85.80;;;;;;4984349;28;20041;-63
2022/12/15 13:56:50;;;;;;;65.13;30.38;;;1.90;85.60;;;;;;4979695;28;20034;-64
2022/12/15 13:59:28;;;;;;;64.60;31.77;;;1.90;85.40;;;;;;4985359;28;20046;-64
2022/12/15 14:01:54;;;;;;;64.75;30.52;;;1.90;85.40;;;;;;4980655;28;20047;-63
2022/12/15 14:04:20;;;;;;;64.50;30.42;;;1.90;85.40;;;;;;4982270;28;20034;-64
2022/12/15 14:06:48;;;;;;;56.00;27.77;;;1.90;85.40;;;;;;4985830;28;20043;-63
2022/12/15 14:09:19;;;;;;;64.70;30.40;;;1.80;85.40;;;;;;4987915;28;20031;-64
2022/12/15 14:11:45;;;;;;;56.60;29.13;;;1.80;85.40;;;;;;4980874;28;20049;-64
2022/12/15 14:14:37;;;;;;;61.45;29.52;;;1.80;85.50;;;;;;4985400;28;20042;-64
2022/12/15 14:17:14;;;;;;;65.07;30.58;;;1.80;85.60;;;;;;4981827;28;20045;-64
2022/12/15 14:19:46;;;;;;;61.28;29.27;;;1.80;85.60;;;;;;4983620;28;20510;-64
2022/12/15 14:22:23;;;;;;;63.83;30.02;;;1.80;85.50;;;;;;4986954;28;20384;-63
2022/12/15 14:24:50;;;;;;;57.88;28.65;;;1.80;85.60;;;;;;4984640;28;20089;-64
2022/12/15 14:27:26;;;;;;;59.85;28.58;;;1.70;85.60;;;;;;4983128;28;20065;-64
2022/12/15 14:30:12;;;;;;;57.00;27.92;;;1.70;85.80;;;;;;4985331;28;20046;-64
2022/12/15 14:32:39;;;;;;;58.22;27.98;;;1.70;86.00;;;;;;4981566;28;20038;-63
2022/12/15 14:35:08;;;;;;;58.85;28.42;;;1.70;85.90;;;;;;4987423;28;20524;-63
2022/12/15 14:37:33;;;;;;;61.38;30.40;;;1.70;86.10;;;;;;4983395;28;20122;-64
2022/12/15 14:39:59;;;;;;;67.35;32.25;;;1.70;86.30;;;;;;4987292;28;20482;-64
2022/12/15 14:42:27;;;;;;;66.05;31.65;;;1.70;86.30;;;;;;4981117;28;20038;-64
2022/12/15 14:44:53;;;;;;;62.10;31.55;;;1.60;86.40;;;;;;4983172;28;20038;-64
2022/12/15 14:47:31;;;;;;;62.15;30.75;;;1.70;86.50;;;;;;4982098;28;20038;-64
2022/12/15 14:50:00;;;;;;;62.50;31.88;;;1.70;86.60;;;;;;4978667;28;20439;-64
2022/12/15 14:52:29;;;;;;;63.65;30.98;;;1.70;86.60;;;;;;4976586;28;20039;-65
2022/12/15 14:54:57;;;;;;;63.28;32.08;;;1.70;86.50;;;;;;4976512;28;20049;-63
2022/12/15 14:57:27;;;;;;;58.75;30.40;;;1.70;86.50;;;;;;4988643;28;20037;-64
2022/12/15 14:59:53;;;;;;;66.57;33.63;;;1.80;86.60;;;;;;4989192;28;20038;-64
2022/12/15 15:02:25;;;;;;;62.10;31.13;;;1.70;86.50;;;;;;4989406;28;20034;-63
2022/12/15 15:04:58;;;;;;;59.38;30.15;;;1.80;86.50;;;;;;5016221;28;20478;-63
2022/12/15 15:07:25;;;;;;;64.55;30.83;;;1.80;86.60;;;;;;4986553;28;20054;-64
2022/12/15 15:09:51;;;;;;;67.05;31.50;;;1.80;86.40;;;;;;4982127;28;20034;-64
2022/12/15 15:12:43;;;;;;;65.03;31.13;;;1.80;86.30;;;;;;4978579;28;20121;-64
2022/12/15 15:15:20;;;;;;;69.05;31.80;;;1.80;86.30;;;;;;4983433;28;20438;-64
2022/12/15 15:17:55;;;;;;;69.40;33.92;;;1.70;86.20;;;;;;4983685;28;20050;-64
2022/12/15 15:20:23;;;;;;;69.47;32.00;;;1.70;86.30;;;;;;4985158;28;20380;-63
2022/12/15 15:23:02;;;;;;;68.43;32.15;;;1.70;86.30;;;;;;4975561;28;20042;-64